sensor_id;sensor_type;location;lat;lon;timestamp;temperature;humidity
10459;DHT22;5277;48.722;8.736;2022-12-10T00:01:24;3.50;99.90
10459;DHT22;5277;48.722;8.736;2022-12-10T00:03:50;3.50;99.90
10459;DHT22;5277;48.722;8.736;2022-12-10T00:06:18;3.50;99.90
10459;DHT22;5277;48.722;8.736;2022-12-10T00:08:45;3.50;99.90
10459;DHT22;5277;48.722;8.736;2022-12-10T00:11:12;3.40;99.90
10459;DHT22;5277;48.722;8.736;2022-12-10T00:13:38;3.40;99.90
10459;DHT22;5277;48.722;8.736;2022-12-10T00:16:06;3.40;99.90
10459;DHT22;5277;48.722;8.736;2022-12-10T00:18:33;3.40;99.90
10459;DHT22;5277;48.722;8.736;2022-12-10T00:21:05;3.40;99.90
10459;DHT22;5277;48.722;8.736;2022-12-10T00:23:32;3.50;99.90
10459;DHT22;5277;48.722;8.736;2022-12-10T00:26:05;3.50;99.90
10459;DHT22;5277;48.722;8.736;2022-12-10T00:28:32;3.50;99.90
10459;DHT22;5277;48.722;8.736;2022-12-10T00:31:19;3.50;99.90
10459;DHT22;5277;48.722;8.736;2022-12-10T00:33:46;3.60;99.90
10459;DHT22;5277;48.722;8.736;2022-12-10T00:36:14;3.50;99.90
10459;DHT22;5277;48.722;8.736;2022-12-10T00:38:40;3.40;99.90
10459;DHT22;5277;48.722;8.736;2022-12-10T00:41:07;3.40;99.90
10459;DHT22;5277;48.722;8.736;2022-12-10T00:43:33;3.40;99.90
10459;DHT22;5277;48.722;8.736;2022-12-10T00:45:59;3.40;99.90
10459;DHT22;5277;48.722;8.736;2022-12-10T00:48:24;3.50;99.90
10459;DHT22;5277;48.722;8.736;2022-12-10T00:51:05;3.50;99.90
10459;DHT22;5277;48.722;8.736;2022-12-10T00:53:32;3.60;99.90
10459;DHT22;5277;48.722;8.736;2022-12-10T00:55:59;3.50;99.90
10459;DHT22;5277;48.722;8.736;2022-12-10T00:58:29;3.50;99.90
10459;DHT22;5277;48.722;8.736;2022-12-10T01:01:09;3.50;99.90
10459;DHT22;5277;48.722;8.736;2022-12-10T01:03:36;3.50;99.90
10459;DHT22;5277;48.722;8.736;2022-12-10T01:06:29;3.50;99.90
10459;DHT22;5277;48.722;8.736;2022-12-10T01:08:58;3.50;99.90
10459;DHT22;5277;48.722;8.736;2022-12-10T01:11:28;3.50;99.90
10459;DHT22;5277;48.722;8.736;2022-12-10T01:13:54;3.50;99.90
10459;DHT22;5277;48.722;8.736;2022-12-10T01:16:20;3.50;99.90
10459;DHT22;5277;48.722;8.736;2022-12-10T01:18:46;3.50;99.90
10459;DHT22;5277;48.722;8.736;2022-12-10T01:21:15;3.50;99.90
10459;DHT22;5277;48.722;8.736;2022-12-10T01:23:43;3.50;99.90
10459;DHT22;5277;48.722;8.736;2022-12-10T01:26:11;3.50;99.90
10459;DHT22;5277;48.722;8.736;2022-12-10T01:28:39;3.50;99.90
10459;DHT22;5277;48.722;8.736;2022-12-10T01:31:09;3.50;99.90
10459;DHT22;5277;48.722;8.736;2022-12-10T01:33:35;3.50;99.90
10459;DHT22;5277;48.722;8.736;2022-12-10T01:36:03;3.50;99.90
10459;DHT22;5277;48.722;8.736;2022-12-10T01:38:29;3.60;99.90
10459;DHT22;5277;48.722;8.736;2022-12-10T01:40:55;3.50;99.90
10459;DHT22;5277;48.722;8.736;2022-12-10T01:43:20;3.50;99.90
10459;DHT22;5277;48.722;8.736;2022-12-10T01:45:48;3.50;99.90
10459;DHT22;5277;48.722;8.736;2022-12-10T01:48:14;3.50;99.90
10459;DHT22;5277;48.722;8.736;2022-12-10T01:50:40;3.50;99.90
10459;DHT22;5277;48.722;8.736;2022-12-10T01:53:06;3.50;99.90
10459;DHT22;5277;48.722;8.736;2022-12-10T01:55:43;3.50;99.90
10459;DHT22;5277;48.722;8.736;2022-12-10T01:58:10;3.50;99.90
10459;DHT22;5277;48.722;8.736;2022-12-10T02:00:41;3.60;99.90
10459;DHT22;5277;48.722;8.736;2022-12-10T02:03:14;3.50;99.90
10459;DHT22;5277;48.722;8.736;2022-12-10T02:05:48;3.50;99.90
10459;DHT22;5277;48.722;8.736;2022-12-10T02:08:32;3.50;99.90
10459;DHT22;5277;48.722;8.736;2022-12-10T02:11:17;3.50;99.90
10459;DHT22;5277;48.722;8.736;2022-12-10T02:13:59;3.50;99.90
10459;DHT22;5277;48.722;8.736;2022-12-10T02:16:38;3.50;99.90
10459;DHT22;5277;48.722;8.736;2022-12-10T02:19:19;3.50;99.90
10459;DHT22;5277;48.722;8.736;2022-12-10T02:21:49;3.60;99.90
10459;DHT22;5277;48.722;8.736;2022-12-10T02:24:21;3.50;99.90
10459;DHT22;5277;48.722;8.736;2022-12-10T02:27:19;3.50;99.90
10459;DHT22;5277;48.722;8.736;2022-12-10T02:29:48;3.50;99.90
10459;DHT22;5277;48.722;8.736;2022-12-10T02:32:19;3.50;99.90
10459;DHT22;5277;48.722;8.736;2022-12-10T02:34:52;3.50;99.90
10459;DHT22;5277;48.722;8.736;2022-12-10T02:37:35;3.50;99.90
10459;DHT22;5277;48.722;8.736;2022-12-10T02:40:06;3.40;99.90
10459;DHT22;5277;48.722;8.736;2022-12-10T02:42:38;3.40;99.90
10459;DHT22;5277;48.722;8.736;2022-12-10T02:45:04;3.50;99.90
10459;DHT22;5277;48.722;8.736;2022-12-10T02:47:30;3.40;99.90
10459;DHT22;5277;48.722;8.736;2022-12-10T02:49:58;3.50;99.90
10459;DHT22;5277;48.722;8.736;2022-12-10T02:52:24;3.50;99.90
10459;DHT22;5277;48.722;8.736;2022-12-10T02:54:51;3.40;99.90
10459;DHT22;5277;48.722;8.736;2022-12-10T02:57:29;3.50;99.90
10459;DHT22;5277;48.722;8.736;2022-12-10T03:05:22;3.50;99.90
10459;DHT22;5277;48.722;8.736;2022-12-10T03:08:05;3.50;99.90
10459;DHT22;5277;48.722;8.736;2022-12-10T03:10:42;3.40;99.90
10459;DHT22;5277;48.722;8.736;2022-12-10T03:13:12;3.50;99.90
10459;DHT22;5277;48.722;8.736;2022-12-10T03:15:41;3.50;99.90
10459;DHT22;5277;48.722;8.736;2022-12-10T03:18:09;3.50;99.90
10459;DHT22;5277;48.722;8.736;2022-12-10T03:20:39;3.50;99.90
10459;DHT22;5277;48.722;8.736;2022-12-10T03:23:08;3.50;99.90
10459;DHT22;5277;48.722;8.736;2022-12-10T03:25:35;3.50;99.90
10459;DHT22;5277;48.722;8.736;2022-12-10T03:28:03;3.50;99.90
10459;DHT22;5277;48.722;8.736;2022-12-10T03:30:31;3.50;99.90
10459;DHT22;5277;48.722;8.736;2022-12-10T03:32:57;3.50;99.90
10459;DHT22;5277;48.722;8.736;2022-12-10T03:35:23;3.50;99.90
10459;DHT22;5277;48.722;8.736;2022-12-10T03:37:50;3.50;99.90
10459;DHT22;5277;48.722;8.736;2022-12-10T03:40:18;3.50;99.90
10459;DHT22;5277;48.722;8.736;2022-12-10T03:42:43;3.40;99.90
10459;DHT22;5277;48.722;8.736;2022-12-10T03:45:09;3.40;99.90
10459;DHT22;5277;48.722;8.736;2022-12-10T03:47:35;3.40;99.90
10459;DHT22;5277;48.722;8.736;2022-12-10T03:50:01;3.40;99.90
10459;DHT22;5277;48.722;8.736;2022-12-10T03:52:26;3.40;99.90
10459;DHT22;5277;48.722;8.736;2022-12-10T03:54:52;3.40;99.90
10459;DHT22;5277;48.722;8.736;2022-12-10T03:57:17;3.40;99.90
10459;DHT22;5277;48.722;8.736;2022-12-10T03:59:43;3.40;99.90
10459;DHT22;5277;48.722;8.736;2022-12-10T04:02:08;3.40;99.90
10459;DHT22;5277;48.722;8.736;2022-12-10T04:04:36;3.40;99.90
10459;DHT22;5277;48.722;8.736;2022-12-10T04:07:01;3.40;99.90
10459;DHT22;5277;48.722;8.736;2022-12-10T04:09:27;3.40;99.90
10459;DHT22;5277;48.722;8.736;2022-12-10T04:11:59;3.40;99.90
10459;DHT22;5277;48.722;8.736;2022-12-10T04:14:25;3.50;99.90
10459;DHT22;5277;48.722;8.736;2022-12-10T04:17:09;3.50;99.90
10459;DHT22;5277;48.722;8.736;2022-12-10T04:19:35;3.50;99.90
10459;DHT22;5277;48.722;8.736;2022-12-10T04:22:01;3.50;99.90
10459;DHT22;5277;48.722;8.736;2022-12-10T04:24:45;3.50;99.90
10459;DHT22;5277;48.722;8.736;2022-12-10T04:27:32;3.40;99.90
10459;DHT22;5277;48.722;8.736;2022-12-10T04:29:59;3.40;99.90
10459;DHT22;5277;48.722;8.736;2022-12-10T04:32:26;3.40;99.90
10459;DHT22;5277;48.722;8.736;2022-12-10T04:34:53;3.40;99.90
10459;DHT22;5277;48.722;8.736;2022-12-10T04:37:19;3.40;99.90
10459;DHT22;5277;48.722;8.736;2022-12-10T04:39:46;3.50;99.90
10459;DHT22;5277;48.722;8.736;2022-12-10T04:42:12;3.40;99.90
10459;DHT22;5277;48.722;8.736;2022-12-10T04:44:38;3.40;99.90
10459;DHT22;5277;48.722;8.736;2022-12-10T04:47:05;3.40;99.90
10459;DHT22;5277;48.722;8.736;2022-12-10T04:49:31;3.50;99.90
10459;DHT22;5277;48.722;8.736;2022-12-10T04:51:57;3.40;99.90
10459;DHT22;5277;48.722;8.736;2022-12-10T04:54:23;3.40;99.90
10459;DHT22;5277;48.722;8.736;2022-12-10T04:56:48;3.40;99.90
10459;DHT22;5277;48.722;8.736;2022-12-10T04:59:15;3.40;99.90
10459;DHT22;5277;48.722;8.736;2022-12-10T05:01:40;3.40;99.90
10459;DHT22;5277;48.722;8.736;2022-12-10T05:04:18;3.40;99.90
10459;DHT22;5277;48.722;8.736;2022-12-10T05:10:03;3.40;99.90
10459;DHT22;5277;48.722;8.736;2022-12-10T05:12:48;3.30;99.90
10459;DHT22;5277;48.722;8.736;2022-12-10T05:15:13;3.30;99.90
10459;DHT22;5277;48.722;8.736;2022-12-10T05:17:41;3.30;99.90
10459;DHT22;5277;48.722;8.736;2022-12-10T05:20:10;3.30;99.90
10459;DHT22;5277;48.722;8.736;2022-12-10T05:22:39;3.20;99.90
10459;DHT22;5277;48.722;8.736;2022-12-10T05:25:46;3.30;99.90
10459;DHT22;5277;48.722;8.736;2022-12-10T05:28:37;3.30;99.90
10459;DHT22;5277;48.722;8.736;2022-12-10T05:31:20;3.30;99.90
10459;DHT22;5277;48.722;8.736;2022-12-10T05:33:46;3.30;99.90
10459;DHT22;5277;48.722;8.736;2022-12-10T05:36:14;3.30;99.90
10459;DHT22;5277;48.722;8.736;2022-12-10T05:38:40;3.30;99.90
10459;DHT22;5277;48.722;8.736;2022-12-10T05:41:09;3.40;99.90
10459;DHT22;5277;48.722;8.736;2022-12-10T05:43:42;3.30;99.90
10459;DHT22;5277;48.722;8.736;2022-12-10T05:46:18;3.40;99.90
10459;DHT22;5277;48.722;8.736;2022-12-10T05:48:53;3.50;99.90
10459;DHT22;5277;48.722;8.736;2022-12-10T05:51:25;3.40;99.90
10459;DHT22;5277;48.722;8.736;2022-12-10T05:53:52;3.40;99.90
10459;DHT22;5277;48.722;8.736;2022-12-10T05:56:27;3.40;99.90
10459;DHT22;5277;48.722;8.736;2022-12-10T05:58:57;3.40;99.90
10459;DHT22;5277;48.722;8.736;2022-12-10T06:01:27;3.30;99.90
10459;DHT22;5277;48.722;8.736;2022-12-10T06:03:53;3.20;99.90
10459;DHT22;5277;48.722;8.736;2022-12-10T06:06:34;3.30;99.90
10459;DHT22;5277;48.722;8.736;2022-12-10T06:09:00;3.20;99.90
10459;DHT22;5277;48.722;8.736;2022-12-10T06:11:44;3.30;99.90
10459;DHT22;5277;48.722;8.736;2022-12-10T06:14:10;3.30;99.90
10459;DHT22;5277;48.722;8.736;2022-12-10T06:16:36;3.20;99.90
10459;DHT22;5277;48.722;8.736;2022-12-10T06:19:02;3.20;99.90
10459;DHT22;5277;48.722;8.736;2022-12-10T06:21:27;3.10;99.90
10459;DHT22;5277;48.722;8.736;2022-12-10T06:23:53;3.10;99.90
10459;DHT22;5277;48.722;8.736;2022-12-10T06:26:22;3.10;99.90
10459;DHT22;5277;48.722;8.736;2022-12-10T06:28:48;3.10;99.90
10459;DHT22;5277;48.722;8.736;2022-12-10T06:31:15;3.10;99.90
10459;DHT22;5277;48.722;8.736;2022-12-10T06:33:41;3.10;99.90
10459;DHT22;5277;48.722;8.736;2022-12-10T06:36:09;3.10;99.90
10459;DHT22;5277;48.722;8.736;2022-12-10T06:38:36;3.00;99.90
10459;DHT22;5277;48.722;8.736;2022-12-10T06:41:12;3.00;99.90
10459;DHT22;5277;48.722;8.736;2022-12-10T06:44:18;3.00;99.90
10459;DHT22;5277;48.722;8.736;2022-12-10T06:46:48;3.00;99.90
10459;DHT22;5277;48.722;8.736;2022-12-10T06:52:26;3.10;99.90
10459;DHT22;5277;48.722;8.736;2022-12-10T06:55:00;3.10;99.90
10459;DHT22;5277;48.722;8.736;2022-12-10T06:57:30;3.00;99.90
10459;DHT22;5277;48.722;8.736;2022-12-10T07:00:12;2.90;99.90
10459;DHT22;5277;48.722;8.736;2022-12-10T07:02:38;3.00;99.90
10459;DHT22;5277;48.722;8.736;2022-12-10T07:05:07;2.90;99.90
10459;DHT22;5277;48.722;8.736;2022-12-10T07:07:33;2.90;99.90
10459;DHT22;5277;48.722;8.736;2022-12-10T07:10:05;2.90;99.90
10459;DHT22;5277;48.722;8.736;2022-12-10T07:12:42;2.90;99.90
10459;DHT22;5277;48.722;8.736;2022-12-10T07:15:19;2.90;99.90
10459;DHT22;5277;48.722;8.736;2022-12-10T07:17:45;2.90;99.90
10459;DHT22;5277;48.722;8.736;2022-12-10T07:20:13;2.90;99.90
10459;DHT22;5277;48.722;8.736;2022-12-10T07:22:57;2.90;99.90
10459;DHT22;5277;48.722;8.736;2022-12-10T07:25:34;2.90;99.90
10459;DHT22;5277;48.722;8.736;2022-12-10T07:28:05;3.00;99.90
10459;DHT22;5277;48.722;8.736;2022-12-10T07:30:33;2.90;99.90
10459;DHT22;5277;48.722;8.736;2022-12-10T07:33:07;2.90;99.90
10459;DHT22;5277;48.722;8.736;2022-12-10T07:35:35;2.90;99.90
10459;DHT22;5277;48.722;8.736;2022-12-10T07:38:02;3.00;99.90
10459;DHT22;5277;48.722;8.736;2022-12-10T07:40:31;3.00;99.90
10459;DHT22;5277;48.722;8.736;2022-12-10T07:42:57;2.90;99.90
10459;DHT22;5277;48.722;8.736;2022-12-10T07:45:31;2.90;99.90
10459;DHT22;5277;48.722;8.736;2022-12-10T07:48:14;3.00;99.90
10459;DHT22;5277;48.722;8.736;2022-12-10T07:51:13;3.00;99.90
10459;DHT22;5277;48.722;8.736;2022-12-10T07:54:08;3.10;99.90
10459;DHT22;5277;48.722;8.736;2022-12-10T07:59:53;3.10;99.90
10459;DHT22;5277;48.722;8.736;2022-12-10T08:02:22;3.10;99.90
10459;DHT22;5277;48.722;8.736;2022-12-10T08:04:53;3.00;99.90
10459;DHT22;5277;48.722;8.736;2022-12-10T08:07:19;2.90;99.90
10459;DHT22;5277;48.722;8.736;2022-12-10T08:09:50;2.90;99.90
10459;DHT22;5277;48.722;8.736;2022-12-10T08:12:19;3.00;99.90
10459;DHT22;5277;48.722;8.736;2022-12-10T08:14:45;2.90;99.90
10459;DHT22;5277;48.722;8.736;2022-12-10T08:17:13;2.90;99.90
10459;DHT22;5277;48.722;8.736;2022-12-10T08:19:39;2.90;99.90
10459;DHT22;5277;48.722;8.736;2022-12-10T08:22:07;2.90;99.90
10459;DHT22;5277;48.722;8.736;2022-12-10T08:24:36;2.90;99.90
10459;DHT22;5277;48.722;8.736;2022-12-10T08:27:24;2.90;99.90
10459;DHT22;5277;48.722;8.736;2022-12-10T08:30:02;2.90;99.90
10459;DHT22;5277;48.722;8.736;2022-12-10T08:32:30;2.90;99.90
10459;DHT22;5277;48.722;8.736;2022-12-10T08:34:59;3.00;99.90
10459;DHT22;5277;48.722;8.736;2022-12-10T08:37:24;3.00;99.90
10459;DHT22;5277;48.722;8.736;2022-12-10T08:40:07;3.00;99.90
10459;DHT22;5277;48.722;8.736;2022-12-10T08:42:35;3.00;99.90
10459;DHT22;5277;48.722;8.736;2022-12-10T08:45:01;3.20;99.90
10459;DHT22;5277;48.722;8.736;2022-12-10T08:47:27;3.10;99.90
10459;DHT22;5277;48.722;8.736;2022-12-10T08:49:53;3.20;99.90
10459;DHT22;5277;48.722;8.736;2022-12-10T08:52:27;3.10;99.90
10459;DHT22;5277;48.722;8.736;2022-12-10T08:55:00;3.20;99.90
10459;DHT22;5277;48.722;8.736;2022-12-10T08:57:26;3.00;99.90
10459;DHT22;5277;48.722;8.736;2022-12-10T08:59:57;3.00;99.90
10459;DHT22;5277;48.722;8.736;2022-12-10T09:05:31;3.10;99.90
10459;DHT22;5277;48.722;8.736;2022-12-10T09:08:07;2.90;99.90
10459;DHT22;5277;48.722;8.736;2022-12-10T09:10:42;2.90;99.90
10459;DHT22;5277;48.722;8.736;2022-12-10T09:13:13;2.90;99.90
10459;DHT22;5277;48.722;8.736;2022-12-10T09:16:00;3.00;99.90
10459;DHT22;5277;48.722;8.736;2022-12-10T09:18:28;3.00;99.90
10459;DHT22;5277;48.722;8.736;2022-12-10T09:21:04;3.00;99.90
10459;DHT22;5277;48.722;8.736;2022-12-10T09:23:43;3.00;99.90
10459;DHT22;5277;48.722;8.736;2022-12-10T09:26:18;3.00;99.90
10459;DHT22;5277;48.722;8.736;2022-12-10T09:28:53;2.90;99.90
10459;DHT22;5277;48.722;8.736;2022-12-10T09:31:26;2.90;99.90
10459;DHT22;5277;48.722;8.736;2022-12-10T09:33:55;2.90;99.90
10459;DHT22;5277;48.722;8.736;2022-12-10T09:36:23;3.00;99.90
10459;DHT22;5277;48.722;8.736;2022-12-10T09:39:05;3.00;99.90
10459;DHT22;5277;48.722;8.736;2022-12-10T09:41:47;2.90;99.90
10459;DHT22;5277;48.722;8.736;2022-12-10T09:44:39;3.00;99.90
10459;DHT22;5277;48.722;8.736;2022-12-10T09:47:13;3.00;99.90
10459;DHT22;5277;48.722;8.736;2022-12-10T09:52:38;2.90;99.90
10459;DHT22;5277;48.722;8.736;2022-12-10T09:55:27;2.90;99.90
10459;DHT22;5277;48.722;8.736;2022-12-10T09:58:04;2.90;99.90
10459;DHT22;5277;48.722;8.736;2022-12-10T10:00:38;2.80;99.90
10459;DHT22;5277;48.722;8.736;2022-12-10T10:03:15;2.80;99.90
10459;DHT22;5277;48.722;8.736;2022-12-10T10:05:50;2.90;99.90
10459;DHT22;5277;48.722;8.736;2022-12-10T10:08:36;2.90;99.90
10459;DHT22;5277;48.722;8.736;2022-12-10T10:11:14;2.90;99.90
10459;DHT22;5277;48.722;8.736;2022-12-10T10:17:19;2.90;99.90
10459;DHT22;5277;48.722;8.736;2022-12-10T10:19:56;3.00;99.90
10459;DHT22;5277;48.722;8.736;2022-12-10T10:22:25;2.90;99.90
10459;DHT22;5277;48.722;8.736;2022-12-10T10:24:52;3.00;99.90
10459;DHT22;5277;48.722;8.736;2022-12-10T10:27:26;2.90;99.90
10459;DHT22;5277;48.722;8.736;2022-12-10T10:29:58;2.90;99.90
10459;DHT22;5277;48.722;8.736;2022-12-10T10:33:07;2.90;99.90
10459;DHT22;5277;48.722;8.736;2022-12-10T10:35:48;2.80;99.90
10459;DHT22;5277;48.722;8.736;2022-12-10T10:38:28;2.90;99.90
10459;DHT22;5277;48.722;8.736;2022-12-10T10:41:11;2.90;99.90
10459;DHT22;5277;48.722;8.736;2022-12-10T10:44:00;2.90;99.90
10459;DHT22;5277;48.722;8.736;2022-12-10T10:46:29;3.00;99.90
10459;DHT22;5277;48.722;8.736;2022-12-10T10:49:25;3.10;99.90
10459;DHT22;5277;48.722;8.736;2022-12-10T10:51:59;3.10;99.90
10459;DHT22;5277;48.722;8.736;2022-12-10T10:54:52;3.10;99.90
10459;DHT22;5277;48.722;8.736;2022-12-10T10:57:41;3.00;99.90
10459;DHT22;5277;48.722;8.736;2022-12-10T11:00:31;3.10;99.90
10459;DHT22;5277;48.722;8.736;2022-12-10T11:03:14;3.20;99.90
10459;DHT22;5277;48.722;8.736;2022-12-10T11:05:54;3.20;99.90
10459;DHT22;5277;48.722;8.736;2022-12-10T11:08:33;3.20;99.90
10459;DHT22;5277;48.722;8.736;2022-12-10T11:14:40;3.30;99.90
10459;DHT22;5277;48.722;8.736;2022-12-10T11:17:34;3.40;99.90
10459;DHT22;5277;48.722;8.736;2022-12-10T11:20:33;3.40;99.90
10459;DHT22;5277;48.722;8.736;2022-12-10T11:23:13;3.40;99.90
10459;DHT22;5277;48.722;8.736;2022-12-10T11:34:30;3.30;99.90
10459;DHT22;5277;48.722;8.736;2022-12-10T11:40:13;3.40;99.90
10459;DHT22;5277;48.722;8.736;2022-12-10T11:51:08;3.40;99.90
10459;DHT22;5277;48.722;8.736;2022-12-10T11:57:20;3.40;99.90
10459;DHT22;5277;48.722;8.736;2022-12-10T12:00:00;3.50;99.90
10459;DHT22;5277;48.722;8.736;2022-12-10T12:05:31;3.50;99.90
10459;DHT22;5277;48.722;8.736;2022-12-10T12:16:50;3.50;99.90
10459;DHT22;5277;48.722;8.736;2022-12-10T12:19:58;3.60;99.90
10459;DHT22;5277;48.722;8.736;2022-12-10T12:22:28;3.40;99.90
10459;DHT22;5277;48.722;8.736;2022-12-10T12:25:08;3.60;99.90
10459;DHT22;5277;48.722;8.736;2022-12-10T12:28:22;3.50;99.90
10459;DHT22;5277;48.722;8.736;2022-12-10T12:31:24;3.40;99.90
10459;DHT22;5277;48.722;8.736;2022-12-10T12:37:19;3.30;99.90
10459;DHT22;5277;48.722;8.736;2022-12-10T12:40:10;3.50;99.90
10459;DHT22;5277;48.722;8.736;2022-12-10T12:45:42;3.50;99.90
10459;DHT22;5277;48.722;8.736;2022-12-10T12:48:26;3.60;99.90
10459;DHT22;5277;48.722;8.736;2022-12-10T12:51:10;3.60;99.90
10459;DHT22;5277;48.722;8.736;2022-12-10T12:53:55;3.60;99.90
10459;DHT22;5277;48.722;8.736;2022-12-10T13:00:03;3.70;99.90
10459;DHT22;5277;48.722;8.736;2022-12-10T13:05:52;3.70;99.90
10459;DHT22;5277;48.722;8.736;2022-12-10T13:08:32;3.70;99.90
10459;DHT22;5277;48.722;8.736;2022-12-10T13:14:35;3.70;99.90
10459;DHT22;5277;48.722;8.736;2022-12-10T13:19:41;3.60;99.90
10459;DHT22;5277;48.722;8.736;2022-12-10T13:25:17;3.70;99.90
10459;DHT22;5277;48.722;8.736;2022-12-10T13:39:46;3.60;99.90
10459;DHT22;5277;48.722;8.736;2022-12-10T13:47:55;3.60;99.90
10459;DHT22;5277;48.722;8.736;2022-12-10T13:51:01;3.50;99.90
10459;DHT22;5277;48.722;8.736;2022-12-10T13:53:55;3.60;99.90
10459;DHT22;5277;48.722;8.736;2022-12-10T13:56:51;3.60;99.80
10459;DHT22;5277;48.722;8.736;2022-12-10T14:05:27;3.50;99.90
10459;DHT22;5277;48.722;8.736;2022-12-10T14:08:23;3.50;99.90
10459;DHT22;5277;48.722;8.736;2022-12-10T14:10:55;3.50;99.90
10459;DHT22;5277;48.722;8.736;2022-12-10T14:13:30;3.60;99.90
10459;DHT22;5277;48.722;8.736;2022-12-10T14:16:09;3.50;99.90
10459;DHT22;5277;48.722;8.736;2022-12-10T14:18:42;3.60;99.90
10459;DHT22;5277;48.722;8.736;2022-12-10T14:21:18;3.40;99.90
10459;DHT22;5277;48.722;8.736;2022-12-10T14:23:48;3.50;99.90
10459;DHT22;5277;48.722;8.736;2022-12-10T14:29:50;3.40;99.90
10459;DHT22;5277;48.722;8.736;2022-12-10T14:32:30;3.40;99.90
10459;DHT22;5277;48.722;8.736;2022-12-10T14:38:41;3.30;99.90
10459;DHT22;5277;48.722;8.736;2022-12-10T14:41:22;3.30;99.90
10459;DHT22;5277;48.722;8.736;2022-12-10T14:43:56;3.30;99.90
10459;DHT22;5277;48.722;8.736;2022-12-10T14:46:37;3.30;99.90
10459;DHT22;5277;48.722;8.736;2022-12-10T14:49:26;3.20;99.90
10459;DHT22;5277;48.722;8.736;2022-12-10T14:51:52;3.20;99.90
10459;DHT22;5277;48.722;8.736;2022-12-10T14:54:29;3.20;99.90
10459;DHT22;5277;48.722;8.736;2022-12-10T14:56:58;3.20;99.90
10459;DHT22;5277;48.722;8.736;2022-12-10T14:59:48;3.20;99.90
10459;DHT22;5277;48.722;8.736;2022-12-10T15:02:30;3.20;99.90
10459;DHT22;5277;48.722;8.736;2022-12-10T15:05:23;3.20;99.90
10459;DHT22;5277;48.722;8.736;2022-12-10T15:08:02;3.20;99.90
10459;DHT22;5277;48.722;8.736;2022-12-10T15:10:36;3.10;99.90
10459;DHT22;5277;48.722;8.736;2022-12-10T15:13:03;3.10;99.90
10459;DHT22;5277;48.722;8.736;2022-12-10T15:15:36;3.00;99.90
10459;DHT22;5277;48.722;8.736;2022-12-10T15:18:11;3.10;99.90
10459;DHT22;5277;48.722;8.736;2022-12-10T15:20:45;3.10;99.90
10459;DHT22;5277;48.722;8.736;2022-12-10T15:23:19;3.10;99.90
10459;DHT22;5277;48.722;8.736;2022-12-10T15:28:33;3.00;99.90
10459;DHT22;5277;48.722;8.736;2022-12-10T15:33:59;2.90;99.90
10459;DHT22;5277;48.722;8.736;2022-12-10T15:36:39;3.00;99.90
10459;DHT22;5277;48.722;8.736;2022-12-10T15:41:51;2.90;99.90
10459;DHT22;5277;48.722;8.736;2022-12-10T15:49:23;2.80;99.90
10459;DHT22;5277;48.722;8.736;2022-12-10T15:51:50;2.90;99.90
10459;DHT22;5277;48.722;8.736;2022-12-10T15:54:37;2.80;99.90
10459;DHT22;5277;48.722;8.736;2022-12-10T15:57:14;2.80;99.90
10459;DHT22;5277;48.722;8.736;2022-12-10T15:59:50;2.80;99.90
10459;DHT22;5277;48.722;8.736;2022-12-10T16:02:37;2.80;99.90
10459;DHT22;5277;48.722;8.736;2022-12-10T16:05:29;2.80;99.90
10459;DHT22;5277;48.722;8.736;2022-12-10T16:08:17;2.80;99.90
10459;DHT22;5277;48.722;8.736;2022-12-10T16:10:54;2.70;99.90
10459;DHT22;5277;48.722;8.736;2022-12-10T16:14:00;2.60;99.90
10459;DHT22;5277;48.722;8.736;2022-12-10T16:16:38;2.50;99.90
10459;DHT22;5277;48.722;8.736;2022-12-10T16:19:09;2.50;99.90
10459;DHT22;5277;48.722;8.736;2022-12-10T16:21:37;2.50;99.90
10459;DHT22;5277;48.722;8.736;2022-12-10T16:24:08;2.40;99.90
10459;DHT22;5277;48.722;8.736;2022-12-10T16:26:34;2.50;99.90
10459;DHT22;5277;48.722;8.736;2022-12-10T16:29:00;2.40;99.90
10459;DHT22;5277;48.722;8.736;2022-12-10T16:31:25;2.40;99.90
10459;DHT22;5277;48.722;8.736;2022-12-10T16:33:51;2.50;99.90
10459;DHT22;5277;48.722;8.736;2022-12-10T16:36:18;2.50;99.90
10459;DHT22;5277;48.722;8.736;2022-12-10T16:38:43;2.40;99.90
10459;DHT22;5277;48.722;8.736;2022-12-10T16:41:21;2.40;99.90
10459;DHT22;5277;48.722;8.736;2022-12-10T16:43:47;2.40;99.90
10459;DHT22;5277;48.722;8.736;2022-12-10T16:46:13;2.40;99.90
10459;DHT22;5277;48.722;8.736;2022-12-10T16:48:39;2.40;99.90
10459;DHT22;5277;48.722;8.736;2022-12-10T16:51:24;2.40;99.90
10459;DHT22;5277;48.722;8.736;2022-12-10T16:53:51;2.40;99.90
10459;DHT22;5277;48.722;8.736;2022-12-10T16:56:17;2.30;99.90
10459;DHT22;5277;48.722;8.736;2022-12-10T16:58:45;2.40;99.90
10459;DHT22;5277;48.722;8.736;2022-12-10T17:01:25;2.30;99.90
10459;DHT22;5277;48.722;8.736;2022-12-10T17:03:53;2.40;99.90
10459;DHT22;5277;48.722;8.736;2022-12-10T17:06:19;2.30;99.90
10459;DHT22;5277;48.722;8.736;2022-12-10T17:08:45;2.30;99.90
10459;DHT22;5277;48.722;8.736;2022-12-10T17:11:22;2.40;99.90
10459;DHT22;5277;48.722;8.736;2022-12-10T17:14:26;2.40;99.90
10459;DHT22;5277;48.722;8.736;2022-12-10T17:16:55;2.40;99.90
10459;DHT22;5277;48.722;8.736;2022-12-10T17:19:23;2.40;99.90
10459;DHT22;5277;48.722;8.736;2022-12-10T17:21:49;2.40;99.90
10459;DHT22;5277;48.722;8.736;2022-12-10T17:24:15;2.30;99.90
10459;DHT22;5277;48.722;8.736;2022-12-10T17:29:35;2.30;99.90
10459;DHT22;5277;48.722;8.736;2022-12-10T17:32:02;2.20;99.90
10459;DHT22;5277;48.722;8.736;2022-12-10T17:34:28;2.30;99.90
10459;DHT22;5277;48.722;8.736;2022-12-10T17:36:55;2.30;99.90
10459;DHT22;5277;48.722;8.736;2022-12-10T17:39:21;2.30;99.90
10459;DHT22;5277;48.722;8.736;2022-12-10T17:41:50;2.30;99.90
10459;DHT22;5277;48.722;8.736;2022-12-10T17:44:16;2.40;99.90
10459;DHT22;5277;48.722;8.736;2022-12-10T17:46:42;2.40;99.90
10459;DHT22;5277;48.722;8.736;2022-12-10T17:49:12;2.30;99.90
10459;DHT22;5277;48.722;8.736;2022-12-10T17:51:50;2.30;99.90
10459;DHT22;5277;48.722;8.736;2022-12-10T17:54:26;2.40;99.90
10459;DHT22;5277;48.722;8.736;2022-12-10T17:56:52;2.30;99.90
10459;DHT22;5277;48.722;8.736;2022-12-10T17:59:33;2.30;99.90
10459;DHT22;5277;48.722;8.736;2022-12-10T18:02:09;2.30;99.90
10459;DHT22;5277;48.722;8.736;2022-12-10T18:05:10;2.30;99.90
10459;DHT22;5277;48.722;8.736;2022-12-10T18:07:44;2.30;99.90
10459;DHT22;5277;48.722;8.736;2022-12-10T18:10:16;2.30;99.90
10459;DHT22;5277;48.722;8.736;2022-12-10T18:12:51;2.30;99.90
10459;DHT22;5277;48.722;8.736;2022-12-10T18:15:34;2.30;99.90
10459;DHT22;5277;48.722;8.736;2022-12-10T18:18:10;2.30;99.90
10459;DHT22;5277;48.722;8.736;2022-12-10T18:20:38;2.40;99.90
10459;DHT22;5277;48.722;8.736;2022-12-10T18:23:13;2.40;99.90
10459;DHT22;5277;48.722;8.736;2022-12-10T18:25:54;2.40;99.90
10459;DHT22;5277;48.722;8.736;2022-12-10T18:28:50;2.40;99.90
10459;DHT22;5277;48.722;8.736;2022-12-10T18:31:19;2.20;99.90
10459;DHT22;5277;48.722;8.736;2022-12-10T18:33:49;2.30;99.90
10459;DHT22;5277;48.722;8.736;2022-12-10T18:36:34;2.30;99.90
10459;DHT22;5277;48.722;8.736;2022-12-10T18:39:03;2.40;99.90
10459;DHT22;5277;48.722;8.736;2022-12-10T18:41:28;2.40;99.90
10459;DHT22;5277;48.722;8.736;2022-12-10T18:43:54;2.40;99.90
10459;DHT22;5277;48.722;8.736;2022-12-10T18:46:23;2.40;99.90
10459;DHT22;5277;48.722;8.736;2022-12-10T18:48:49;2.40;99.90
10459;DHT22;5277;48.722;8.736;2022-12-10T18:51:15;2.50;99.90
10459;DHT22;5277;48.722;8.736;2022-12-10T18:53:42;2.50;99.90
10459;DHT22;5277;48.722;8.736;2022-12-10T18:56:14;2.40;99.90